createdAt,value
2018-12-22T00:01:55.223Z,1.00
2018-12-22T00:04:22.744Z,0.73
2018-12-22T00:06:50.235Z,0.80
2018-12-22T00:09:17.747Z,0.80
2018-12-22T00:11:45.237Z,1.00
2018-12-22T00:14:12.751Z,1.00
2018-12-22T00:16:40.246Z,1.00
2018-12-22T00:19:07.737Z,1.00
2018-12-22T00:21:35.251Z,1.10
2018-12-22T00:24:02.739Z,1.20
2018-12-22T00:26:30.255Z,1.30
2018-12-22T00:28:57.751Z,1.13
2018-12-22T00:31:25.267Z,1.30
2018-12-22T00:33:52.759Z,0.90
2018-12-22T00:36:20.246Z,1.00
2018-12-22T00:38:47.760Z,0.90
2018-12-22T00:41:15.256Z,1.00
2018-12-22T00:43:42.771Z,1.17
2018-12-22T00:46:10.262Z,0.83
2018-12-22T00:48:37.775Z,0.80
2018-12-22T00:51:05.269Z,0.87
2018-12-22T00:53:32.765Z,1.00
2018-12-22T00:56:00.283Z,0.93
2018-12-22T00:58:30.872Z,1.03
2018-12-22T01:00:57.308Z,0.97
2018-12-22T01:03:24.804Z,1.10
2018-12-22T01:05:52.324Z,0.90
2018-12-22T01:08:19.822Z,1.00
2018-12-22T01:10:47.335Z,1.00
2018-12-22T01:13:14.828Z,0.90
2018-12-22T01:15:42.346Z,0.90
2018-12-22T01:18:09.924Z,1.20
2018-12-22T01:20:37.441Z,1.10
2018-12-22T01:23:04.931Z,1.10
2018-12-22T01:25:32.450Z,1.03
2018-12-22T01:27:59.943Z,1.10
2018-12-22T01:30:27.439Z,1.50
2018-12-22T01:32:54.951Z,1.30
2018-12-22T01:35:22.835Z,1.07
2018-12-22T01:37:50.352Z,1.10
2018-12-22T01:40:17.848Z,1.30
2018-12-22T01:42:45.367Z,1.30
2018-12-22T01:45:12.859Z,1.40
2018-12-22T01:47:40.359Z,1.17
2018-12-22T01:50:08.035Z,1.30
2018-12-22T01:52:35.529Z,1.07
2018-12-22T01:55:03.804Z,1.00
2018-12-22T01:57:31.299Z,1.03
2018-12-22T01:59:58.791Z,1.10
2018-12-22T02:02:26.303Z,1.10
2018-12-22T02:04:53.803Z,1.20
2018-12-22T02:07:21.319Z,1.03
2018-12-22T02:09:48.811Z,1.07
2018-12-22T02:12:16.324Z,0.90
2018-12-22T02:14:43.821Z,0.90
2018-12-22T02:17:11.315Z,1.10
2018-12-22T02:19:39.111Z,1.10
2018-12-22T02:22:06.664Z,1.10
2018-12-22T02:24:34.243Z,0.90
2018-12-22T02:27:01.735Z,0.90
2018-12-22T02:29:29.247Z,0.90
2018-12-22T02:31:56.736Z,1.27
2018-12-22T02:34:24.256Z,1.07
2018-12-22T02:36:51.760Z,1.00
2018-12-22T02:39:19.255Z,0.93
2018-12-22T02:41:46.775Z,1.50
2018-12-22T02:44:14.272Z,1.10
2018-12-22T02:46:41.793Z,1.10
2018-12-22T02:49:09.288Z,1.10
2018-12-22T02:51:36.980Z,1.30
2018-12-22T02:54:04.471Z,1.30
2018-12-22T02:56:31.965Z,1.37
2018-12-22T02:59:05.903Z,1.23
2018-12-22T03:01:29.005Z,1.20
2018-12-22T03:03:56.599Z,1.33
2018-12-22T03:06:24.088Z,1.30
2018-12-22T03:08:51.603Z,1.00
2018-12-22T03:11:19.094Z,1.30
2018-12-22T03:13:46.616Z,1.10
2018-12-22T03:16:14.328Z,1.23
2018-12-22T03:18:41.819Z,1.20
2018-12-22T03:21:09.337Z,1.13
2018-12-22T03:23:36.827Z,1.40
2018-12-22T03:26:04.351Z,1.00
2018-12-22T03:28:31.959Z,1.20
2018-12-22T03:30:59.476Z,1.10
2018-12-22T03:33:26.971Z,1.20
2018-12-22T03:35:54.482Z,1.07
2018-12-22T03:38:21.980Z,1.40
2018-12-22T03:40:49.491Z,1.30
2018-12-22T03:43:16.983Z,1.00
2018-12-22T03:45:44.503Z,1.20
2018-12-22T03:48:12.000Z,1.10
2018-12-22T03:50:39.672Z,1.30
2018-12-22T03:53:07.201Z,1.10
2018-12-22T03:55:34.701Z,1.00
2018-12-22T03:58:02.210Z,1.20
2018-12-22T04:00:29.708Z,1.10
2018-12-22T04:02:57.233Z,1.27
2018-12-22T04:05:24.723Z,0.90
2018-12-22T04:07:52.236Z,1.10
2018-12-22T04:10:19.729Z,1.10
2018-12-22T04:12:47.242Z,1.10
2018-12-22T04:15:14.816Z,1.10
2018-12-22T04:17:42.316Z,1.27
2018-12-22T04:20:09.833Z,0.97
2018-12-22T04:22:37.377Z,0.97
2018-12-22T04:25:05.060Z,1.23
2018-12-22T04:27:32.554Z,1.00
2018-12-22T04:30:00.070Z,1.10
2018-12-22T04:32:27.611Z,1.30
2018-12-22T04:34:55.112Z,1.33
2018-12-22T04:37:22.608Z,1.13
2018-12-22T04:39:50.123Z,0.97
2018-12-22T04:42:17.620Z,1.20
2018-12-22T04:44:45.139Z,1.07
2018-12-22T04:47:12.633Z,1.10
2018-12-22T04:49:40.154Z,1.20
2018-12-22T04:52:07.647Z,1.30
2018-12-22T04:54:35.155Z,1.30
2018-12-22T04:57:02.648Z,1.30
2018-12-22T04:59:30.163Z,1.30
2018-12-22T05:01:57.741Z,1.23
2018-12-22T05:04:25.263Z,1.27
2018-12-22T05:06:52.760Z,1.17
2018-12-22T05:09:20.279Z,1.20
2018-12-22T05:11:47.783Z,1.20
2018-12-22T05:14:15.307Z,1.10
2018-12-22T05:16:42.804Z,1.23
2018-12-22T05:19:10.299Z,1.50
2018-12-22T05:21:37.876Z,1.13
2018-12-22T05:24:05.371Z,1.00
2018-12-22T05:26:32.882Z,1.17
2018-12-22T05:29:00.371Z,1.20
2018-12-22T05:31:27.879Z,1.40
2018-12-22T05:33:55.377Z,1.43
2018-12-22T05:36:22.966Z,1.23
2018-12-22T05:38:50.455Z,1.00
2018-12-22T05:41:19.780Z,1.20
2018-12-22T05:43:47.487Z,1.10
2018-12-22T05:46:14.998Z,1.27
2018-12-22T05:48:42.516Z,1.40
2018-12-22T05:51:10.021Z,1.13
2018-12-22T05:53:37.534Z,1.10
2018-12-22T05:56:05.097Z,1.10
2018-12-22T05:58:32.655Z,1.10
2018-12-22T06:01:00.145Z,1.17
2018-12-22T06:03:27.930Z,1.23
2018-12-22T06:05:55.446Z,1.20
2018-12-22T06:08:23.019Z,0.90
2018-12-22T06:10:50.538Z,1.00
2018-12-22T06:13:18.036Z,1.10
2018-12-22T06:15:45.547Z,1.20
2018-12-22T06:18:13.035Z,1.13
2018-12-22T06:20:40.546Z,1.10
2018-12-22T06:23:08.036Z,1.17
2018-12-22T06:25:35.549Z,0.97
2018-12-22T06:28:03.155Z,1.00
2018-12-22T06:30:30.779Z,1.10
2018-12-22T06:32:58.272Z,1.17
2018-12-22T06:35:25.766Z,0.97
2018-12-22T06:37:53.278Z,1.00
2018-12-22T06:40:20.771Z,1.10
2018-12-22T06:42:48.292Z,1.10
2018-12-22T06:45:15.789Z,0.90
2018-12-22T06:47:43.309Z,0.90
2018-12-22T06:50:10.803Z,0.90
2018-12-22T06:52:38.295Z,1.00
2018-12-22T06:55:05.807Z,1.10
2018-12-22T06:57:33.308Z,1.10
2018-12-22T07:00:00.823Z,0.80
2018-12-22T07:02:28.320Z,0.80
2018-12-22T07:04:55.844Z,1.10
2018-12-22T07:07:23.340Z,1.00
2018-12-22T07:09:50.831Z,1.00
2018-12-22T07:12:18.428Z,0.80
2018-12-22T07:14:45.918Z,1.10
2018-12-22T07:17:13.438Z,1.13
2018-12-22T07:19:40.932Z,0.80
2018-12-22T07:22:08.443Z,0.80
2018-12-22T07:24:35.935Z,0.93
2018-12-22T07:27:03.446Z,1.00
2018-12-22T07:29:30.941Z,0.90
2018-12-22T07:31:58.463Z,1.03
2018-12-22T07:34:25.962Z,0.90
2018-12-22T07:36:53.478Z,0.93
2018-12-22T07:39:20.967Z,0.93
2018-12-22T07:41:48.484Z,0.80
2018-12-22T07:44:15.975Z,0.90
2018-12-22T07:46:43.467Z,1.17
2018-12-22T07:49:10.988Z,0.80
2018-12-22T07:51:38.475Z,0.60
2018-12-22T07:54:05.986Z,0.90
2018-12-22T07:56:33.555Z,0.73
2018-12-22T07:59:01.156Z,1.10
2018-12-22T08:01:28.656Z,0.80
2018-12-22T08:03:56.173Z,0.70
2018-12-22T08:06:23.658Z,0.90
2018-12-22T08:08:51.151Z,0.80
2018-12-22T08:11:18.667Z,0.87
2018-12-22T08:13:46.160Z,0.77
2018-12-22T08:16:13.671Z,0.73
2018-12-22T08:18:41.939Z,0.70
2018-12-22T08:21:09.460Z,0.90
2018-12-22T08:23:36.951Z,1.07
2018-12-22T08:26:04.446Z,0.80
2018-12-22T08:28:31.963Z,0.70
2018-12-22T08:30:59.459Z,0.70
2018-12-22T08:33:26.984Z,0.90
2018-12-22T08:35:54.475Z,1.10
2018-12-22T08:38:21.996Z,0.80
2018-12-22T08:40:49.487Z,0.97
2018-12-22T08:43:16.980Z,0.73
2018-12-22T08:45:44.491Z,0.90
2018-12-22T08:48:11.988Z,1.00
2018-12-22T08:50:39.499Z,0.80
2018-12-22T08:53:06.987Z,0.70
2018-12-22T08:55:34.499Z,1.00
2018-12-22T08:58:02.075Z,0.90
2018-12-22T09:00:29.566Z,0.80
2018-12-22T09:02:57.080Z,0.90
2018-12-22T09:05:25.031Z,0.83
2018-12-22T09:07:52.543Z,0.90
2018-12-22T09:10:20.115Z,0.87
2018-12-22T09:12:47.711Z,0.80
2018-12-22T09:15:15.211Z,0.70
2018-12-22T09:17:42.727Z,0.80
2018-12-22T09:20:10.219Z,0.80
2018-12-22T09:22:37.793Z,0.90
2018-12-22T09:25:07.567Z,0.80
2018-12-22T09:27:35.069Z,1.13
2018-12-22T09:30:02.669Z,0.90
2018-12-22T09:32:30.164Z,1.07
2018-12-22T09:34:57.684Z,1.00
2018-12-22T09:37:25.180Z,1.43
2018-12-22T09:39:52.675Z,0.80
2018-12-22T09:42:20.191Z,1.00
2018-12-22T09:44:47.688Z,1.00
2018-12-22T09:47:15.204Z,0.73
2018-12-22T09:49:42.695Z,1.03
2018-12-22T09:52:10.211Z,0.80
2018-12-22T09:54:37.781Z,0.90
2018-12-22T09:57:05.303Z,1.00
2018-12-22T09:59:32.809Z,0.90
2018-12-22T10:02:00.308Z,0.90
2018-12-22T10:04:27.828Z,0.80
2018-12-22T10:06:55.319Z,0.80
2018-12-22T10:09:22.890Z,1.10
2018-12-22T10:11:50.455Z,0.90
2018-12-22T10:14:17.955Z,0.93
2018-12-22T10:16:45.467Z,1.10
2018-12-22T10:19:12.968Z,0.90
2018-12-22T10:21:40.483Z,1.03
2018-12-22T10:24:07.975Z,0.90
2018-12-22T10:26:35.496Z,1.00
2018-12-22T10:29:02.997Z,1.40
2018-12-22T10:31:30.491Z,1.40
2018-12-22T10:33:58.008Z,1.10
2018-12-22T10:36:25.499Z,1.53
2018-12-22T10:38:53.016Z,1.17
2018-12-22T10:41:20.503Z,1.37
2018-12-22T10:43:48.020Z,1.00
2018-12-22T10:46:15.511Z,1.13
2018-12-22T10:48:43.033Z,1.23
2018-12-22T10:51:10.613Z,1.07
2018-12-22T10:53:38.219Z,1.20
2018-12-22T10:56:05.731Z,0.80
2018-12-22T10:58:33.501Z,1.20
2018-12-22T11:01:01.020Z,1.30
2018-12-22T11:03:28.517Z,1.10
2018-12-22T11:05:56.037Z,1.20
2018-12-22T11:08:23.536Z,1.10
2018-12-22T11:10:51.056Z,1.27
2018-12-22T11:13:18.551Z,1.40
2018-12-22T11:15:46.042Z,2.50
2018-12-22T11:18:13.559Z,1.47
2018-12-22T11:20:41.055Z,1.10
2018-12-22T11:23:08.567Z,1.20
2018-12-22T11:25:36.055Z,0.70
2018-12-22T11:28:03.576Z,0.80
2018-12-22T11:30:31.142Z,0.80
2018-12-22T11:32:58.655Z,0.80
2018-12-22T11:35:26.160Z,0.80
2018-12-22T11:37:53.680Z,0.90
2018-12-22T11:40:21.170Z,0.90
2018-12-22T11:42:48.664Z,0.80
2018-12-22T11:45:16.251Z,0.90
2018-12-22T11:47:46.208Z,1.00
2018-12-22T11:50:18.476Z,0.90
2018-12-22T11:52:45.975Z,0.80
2018-12-22T11:55:13.464Z,1.00
2018-12-22T11:57:40.979Z,0.80
2018-12-22T12:00:09.833Z,1.03
2018-12-22T12:02:37.349Z,1.00
2018-12-22T12:05:08.208Z,1.23
2018-12-22T12:07:35.806Z,1.13
2018-12-22T12:10:05.158Z,0.90
2018-12-22T12:12:32.651Z,0.93
2018-12-22T12:15:00.258Z,0.90
2018-12-22T12:17:32.767Z,1.03
2018-12-22T12:20:00.308Z,1.00
2018-12-22T12:22:27.805Z,0.90
2018-12-22T12:24:55.320Z,1.03
2018-12-22T12:27:22.816Z,1.00
2018-12-22T12:29:50.335Z,0.90
2018-12-22T12:32:17.827Z,1.00
2018-12-22T12:34:45.350Z,1.00
2018-12-22T12:37:12.843Z,1.10
2018-12-22T12:39:40.340Z,1.30
2018-12-22T12:42:07.855Z,1.13
2018-12-22T12:44:35.419Z,1.50
2018-12-22T12:47:02.949Z,1.50
2018-12-22T12:49:30.525Z,1.47
2018-12-22T12:51:58.044Z,1.90
2018-12-22T12:54:25.535Z,1.40
2018-12-22T12:56:53.056Z,1.63
2018-12-22T12:59:20.548Z,1.37
2018-12-22T13:01:48.039Z,1.40
2018-12-22T13:04:15.555Z,1.40
2018-12-22T13:06:43.047Z,1.60
2018-12-22T13:09:10.559Z,1.73
2018-12-22T13:11:38.063Z,1.30
2018-12-22T13:14:07.758Z,1.73
2018-12-22T13:16:35.095Z,1.43
2018-12-22T13:19:02.611Z,1.57
2018-12-22T13:21:30.108Z,2.10
2018-12-22T13:23:57.679Z,1.70
2018-12-22T13:26:25.251Z,1.57
2018-12-22T13:28:52.739Z,1.73
2018-12-22T13:31:20.252Z,1.53
2018-12-22T13:33:47.746Z,1.40
2018-12-22T13:36:15.243Z,1.30
2018-12-22T13:38:43.040Z,1.43
2018-12-22T13:41:10.528Z,1.60
2018-12-22T13:43:38.055Z,1.23
2018-12-22T13:46:05.543Z,1.57
2018-12-22T13:48:33.305Z,1.30
2018-12-22T13:51:00.883Z,1.40
2018-12-22T13:53:28.378Z,1.37
2018-12-22T13:55:55.892Z,1.53
2018-12-22T13:58:23.463Z,1.47
2018-12-22T14:00:50.981Z,1.60
2018-12-22T14:03:18.551Z,1.60
2018-12-22T14:05:46.043Z,1.40
2018-12-22T14:08:13.555Z,1.90
2018-12-22T14:10:41.044Z,1.60
2018-12-22T14:13:08.563Z,2.10
2018-12-22T14:15:37.015Z,1.60
2018-12-22T14:18:14.163Z,1.80
2018-12-22T14:20:41.660Z,1.30
2018-12-22T14:23:09.154Z,1.70
2018-12-22T14:25:36.672Z,1.60
2018-12-22T14:28:04.171Z,1.47
2018-12-22T14:30:31.759Z,1.13
2018-12-22T14:32:59.250Z,1.43
2018-12-22T14:35:30.631Z,1.93
2018-12-22T14:37:58.207Z,1.60
2018-12-22T14:40:25.727Z,1.63
2018-12-22T14:42:53.225Z,1.63
2018-12-22T14:45:20.729Z,1.47
2018-12-22T14:47:48.257Z,1.60
2018-12-22T14:50:15.747Z,1.50
2018-12-22T14:52:43.259Z,1.97
2018-12-22T14:55:11.808Z,1.43
2018-12-22T14:57:46.020Z,1.70
2018-12-22T15:00:15.883Z,1.43
2018-12-22T15:02:43.464Z,1.40
2018-12-22T15:05:10.975Z,1.63
2018-12-22T15:07:38.472Z,1.40
2018-12-22T15:10:08.852Z,1.60
2018-12-22T15:12:36.346Z,1.87
2018-12-22T15:15:07.319Z,1.83
2018-12-22T15:17:34.807Z,1.70
2018-12-22T15:20:03.266Z,1.70
2018-12-22T15:22:30.787Z,1.60
2018-12-22T15:24:58.283Z,1.37
2018-12-22T15:27:25.800Z,1.30
2018-12-22T15:29:53.290Z,1.60
2018-12-22T15:32:20.803Z,1.50
2018-12-22T15:34:48.293Z,1.43
2018-12-22T15:37:15.786Z,1.53
2018-12-22T15:39:43.310Z,1.60
2018-12-22T15:42:10.804Z,1.60
2018-12-22T15:44:38.328Z,1.90
2018-12-22T15:47:05.819Z,1.30
2018-12-22T15:49:33.401Z,1.67
2018-12-22T15:52:00.951Z,1.30
2018-12-22T15:54:28.443Z,1.20
2018-12-22T15:56:55.963Z,1.10
2018-12-22T15:59:23.455Z,1.30
2018-12-22T16:01:50.976Z,1.40
2018-12-22T16:04:18.473Z,1.37
2018-12-22T16:06:45.988Z,1.40
2018-12-22T16:09:13.478Z,1.57
2018-12-22T16:11:40.997Z,1.20
2018-12-22T16:14:08.491Z,1.63
2018-12-22T16:16:35.979Z,1.63
2018-12-22T16:19:03.507Z,1.30
2018-12-22T16:21:31.005Z,1.20
2018-12-22T16:23:58.596Z,1.67
2018-12-22T16:26:26.168Z,1.20
2018-12-22T16:28:54.441Z,1.30
2018-12-22T16:31:21.936Z,1.20
2018-12-22T16:33:49.452Z,1.60
2018-12-22T16:36:16.948Z,1.40
2018-12-22T16:38:44.435Z,1.33
2018-12-22T16:41:12.028Z,1.37
2018-12-22T16:43:39.776Z,1.30
2018-12-22T16:46:07.290Z,1.87
2018-12-22T16:48:34.776Z,1.53
2018-12-22T16:51:02.283Z,1.20
2018-12-22T16:53:29.901Z,1.33
2018-12-22T16:55:57.487Z,1.47
2018-12-22T16:58:26.868Z,2.00
2018-12-22T17:01:02.199Z,1.50
2018-12-22T17:03:31.171Z,2.50
2018-12-22T17:06:00.915Z,1.17
2018-12-22T17:08:28.399Z,1.87
2018-12-22T17:10:58.167Z,1.70
2018-12-22T17:13:25.779Z,1.37
2018-12-22T17:15:53.342Z,1.87
2018-12-22T17:18:21.311Z,1.77
2018-12-22T17:20:52.063Z,1.47
2018-12-22T17:23:31.199Z,2.10
2018-12-22T17:25:59.947Z,1.43
2018-12-22T17:28:28.528Z,1.37
2018-12-22T17:30:56.269Z,1.70
2018-12-22T17:33:23.780Z,2.00
2018-12-22T17:35:51.267Z,1.90
2018-12-22T17:38:20.661Z,1.70
2018-12-22T17:40:48.474Z,1.37
2018-12-22T17:43:15.991Z,2.33
2018-12-22T17:45:43.481Z,1.17
2018-12-22T17:48:10.972Z,1.40
2018-12-22T17:50:38.489Z,1.40
2018-12-22T17:53:05.979Z,1.83
2018-12-22T17:55:33.579Z,1.50
2018-12-22T17:58:01.145Z,1.50
2018-12-22T18:00:28.656Z,1.20
2018-12-22T18:02:56.147Z,1.77
2018-12-22T18:05:23.635Z,1.43
2018-12-22T18:07:51.147Z,1.93
2018-12-22T18:10:18.635Z,1.97
2018-12-22T18:12:46.143Z,1.40
2018-12-22T18:15:17.828Z,1.23
2018-12-22T18:17:45.343Z,1.37
2018-12-22T18:20:12.834Z,1.77
2018-12-22T18:22:40.329Z,1.40
2018-12-22T18:25:13.841Z,1.77
2018-12-22T18:27:41.331Z,1.77
2018-12-22T18:30:11.304Z,1.57
2018-12-22T18:32:39.547Z,2.00
2018-12-22T18:35:09.415Z,1.70
2018-12-22T18:37:36.979Z,2.13
2018-12-22T18:40:11.579Z,4.30
2018-12-22T18:42:39.148Z,3.77
2018-12-22T18:45:09.901Z,8.53
2018-12-22T18:47:37.419Z,3.13
2018-12-22T18:50:26.628Z,1.40
2018-12-22T18:52:54.125Z,1.73
2018-12-22T18:55:21.621Z,1.50
2018-12-22T18:57:50.483Z,1.30
2018-12-22T19:00:20.996Z,1.80
2018-12-22T19:02:48.583Z,1.80
2018-12-22T19:05:17.134Z,1.80
2018-12-22T19:07:44.619Z,1.63
2018-12-22T19:10:24.419Z,1.73
2018-12-22T19:12:51.931Z,2.70
2018-12-22T19:15:19.419Z,1.63
2018-12-22T19:17:46.915Z,1.77
2018-12-22T19:20:19.872Z,1.83
2018-12-22T19:22:47.359Z,2.03
2018-12-22T19:25:14.867Z,1.97
2018-12-22T19:27:42.356Z,1.90
2018-12-22T19:30:10.133Z,1.67
2018-12-22T19:32:37.645Z,1.70
2018-12-22T19:35:05.987Z,2.83
2018-12-22T19:37:33.499Z,2.37
2018-12-22T19:40:00.987Z,1.73
2018-12-22T19:42:28.482Z,2.47
2018-12-22T19:44:56.000Z,2.00
2018-12-22T19:47:23.568Z,1.73
2018-12-22T19:49:51.081Z,1.80
2018-12-22T19:52:18.570Z,1.60
2018-12-22T19:54:46.076Z,1.60
2018-12-22T19:57:13.563Z,1.73
2018-12-22T19:59:41.052Z,2.00
2018-12-22T20:02:08.564Z,1.90
2018-12-22T20:04:36.065Z,2.10
2018-12-22T20:07:03.660Z,1.90
2018-12-22T20:09:31.148Z,2.03
2018-12-22T20:11:58.660Z,2.00
2018-12-22T20:14:26.154Z,1.40
2018-12-22T20:16:53.644Z,1.70
2018-12-22T20:19:21.160Z,1.57
2018-12-22T20:21:48.658Z,1.50
2018-12-22T20:24:16.170Z,1.90
2018-12-22T20:26:43.662Z,1.73
2018-12-22T20:29:11.167Z,1.73
2018-12-22T20:31:38.650Z,1.70
2018-12-22T20:34:11.057Z,1.93
2018-12-22T20:36:35.684Z,2.30
2018-12-22T20:39:04.532Z,2.37
2018-12-22T20:41:32.050Z,1.73
2018-12-22T20:43:59.539Z,2.17
2018-12-22T20:46:27.058Z,2.50
2018-12-22T20:48:54.547Z,2.43
2018-12-22T20:51:22.035Z,2.13
2018-12-22T20:53:49.548Z,2.30
2018-12-22T20:56:17.035Z,2.50
2018-12-22T20:58:44.547Z,1.90
2018-12-22T21:01:12.043Z,2.27
2018-12-22T21:03:40.007Z,2.30
2018-12-22T21:06:12.231Z,2.40
2018-12-22T21:08:39.719Z,2.53
2018-12-22T21:11:07.313Z,2.73
2018-12-22T21:13:34.800Z,2.47
2018-12-22T21:16:02.295Z,2.70
2018-12-22T21:18:29.807Z,2.23
2018-12-22T21:20:57.296Z,3.00
2018-12-22T21:23:24.807Z,2.80
2018-12-22T21:25:52.295Z,3.30
2018-12-22T21:28:19.787Z,2.30
2018-12-22T21:30:47.295Z,3.03
2018-12-22T21:33:14.783Z,2.43
2018-12-22T21:35:52.792Z,2.30
2018-12-22T21:38:11.801Z,3.50
2018-12-22T21:40:39.318Z,2.47
2018-12-22T21:43:06.810Z,1.90
2018-12-22T21:45:34.299Z,2.70
2018-12-22T21:48:01.807Z,2.07
2018-12-22T21:50:29.295Z,2.20
2018-12-22T21:52:56.808Z,2.37
2018-12-22T21:55:24.553Z,2.50
2018-12-22T21:57:52.068Z,1.63
2018-12-22T22:00:19.559Z,2.47
2018-12-22T22:02:47.056Z,1.93
2018-12-22T22:05:14.569Z,1.70
2018-12-22T22:07:42.055Z,2.80
2018-12-22T22:10:09.564Z,2.83
2018-12-22T22:12:37.051Z,2.20
2018-12-22T22:15:05.120Z,2.90
2018-12-22T22:17:32.632Z,2.20
2018-12-22T22:20:00.169Z,2.20
2018-12-22T22:22:27.756Z,2.10
2018-12-22T22:24:55.247Z,2.33
2018-12-22T22:27:22.760Z,2.80
2018-12-22T22:29:50.250Z,2.20
2018-12-22T22:32:17.741Z,2.63
2018-12-22T22:34:45.724Z,3.13
2018-12-22T22:37:13.576Z,2.53
2018-12-22T22:39:41.101Z,2.87
2018-12-22T22:42:08.592Z,2.50
2018-12-22T22:44:36.079Z,2.17
2018-12-22T22:47:03.592Z,2.87
2018-12-22T22:49:31.084Z,2.87
2018-12-22T22:51:58.595Z,2.70
2018-12-22T22:54:26.087Z,2.30
2018-12-22T22:56:53.604Z,2.00
2018-12-22T22:59:21.100Z,2.47
2018-12-22T23:01:48.615Z,2.43
2018-12-22T23:04:16.103Z,2.10
2018-12-22T23:06:43.616Z,2.47
2018-12-22T23:09:11.968Z,2.00
2018-12-22T23:11:39.455Z,2.10
2018-12-22T23:14:06.984Z,2.00
2018-12-22T23:16:34.575Z,2.23
2018-12-22T23:19:02.091Z,2.10
2018-12-22T23:21:29.579Z,2.13
2018-12-22T23:23:57.068Z,1.90
2018-12-22T23:26:24.581Z,2.10
2018-12-22T23:28:52.072Z,1.73
2018-12-22T23:31:19.584Z,1.90
2018-12-22T23:33:47.070Z,1.90
2018-12-22T23:36:14.668Z,2.17
2018-12-22T23:38:42.340Z,1.93
2018-12-22T23:41:09.826Z,1.60
2018-12-22T23:43:37.344Z,1.97
2018-12-22T23:46:04.831Z,2.00
2018-12-22T23:48:32.335Z,1.80
2018-12-22T23:50:59.828Z,3.20
2018-12-22T23:53:27.320Z,2.20
2018-12-22T23:55:54.836Z,2.00
2018-12-22T23:58:22.328Z,1.80
